createdAt,value
2023-04-27T00:00:16.410Z,1022.050524
2023-04-27T00:05:16.548Z,1022.070871
2023-04-27T00:10:16.905Z,1022.070612
2023-04-27T00:15:16.574Z,1022.010252
2023-04-27T00:20:16.714Z,1022.067169
2023-04-27T00:25:15.822Z,1022.048353
2023-04-27T00:30:16.724Z,1022.008347
2023-04-27T00:35:16.173Z,1022.008980
2023-04-27T00:40:16.393Z,1021.979917
2023-04-27T00:45:16.059Z,1021.957927
2023-04-27T00:50:15.873Z,1021.916675
2023-04-27T00:55:16.550Z,1021.894619
2023-04-27T01:00:15.820Z,1021.988077
2023-04-27T01:05:16.993Z,1021.947123
2023-04-27T01:10:15.988Z,1021.902751
2023-04-27T01:15:16.479Z,1022.019157
2023-04-27T01:20:16.381Z,1022.112173
2023-04-27T01:25:15.849Z,1022.079673
2023-04-27T01:30:16.044Z,1022.143587
2023-04-27T01:35:15.766Z,1022.026564
2023-04-27T01:40:16.644Z,1021.967900
2023-04-27T01:45:16.515Z,1022.049462
2023-04-27T01:50:16.439Z,1022.091302
2023-04-27T01:55:16.157Z,1022.052434
2023-04-27T02:00:16.004Z,1022.071891
2023-04-27T02:05:15.965Z,1022.073470
2023-04-27T02:10:15.852Z,1022.092519
2023-04-27T02:15:15.818Z,1022.071796
2023-04-27T02:20:16.361Z,1022.111886
2023-04-27T02:25:17.174Z,1022.131584
2023-04-27T02:30:15.958Z,1022.172116
2023-04-27T02:35:16.111Z,1022.149944
2023-04-27T02:40:16.164Z,1022.207671
2023-04-27T02:45:16.459Z,1022.286662
2023-04-27T02:50:15.952Z,1022.466967
2023-04-27T02:55:15.851Z,1022.586523
2023-04-27T03:00:16.378Z,1022.689862
2023-04-27T03:05:16.245Z,1022.754497
2023-04-27T03:10:16.836Z,1022.755208
2023-04-27T03:15:16.434Z,1022.855124
2023-04-27T03:20:16.055Z,1022.875570
2023-04-27T03:25:15.887Z,1022.935406
2023-04-27T03:30:15.807Z,1022.915406
2023-04-27T03:35:15.790Z,1022.913535
2023-04-27T03:40:16.360Z,1022.993625
2023-04-27T03:45:15.936Z,1023.056318
2023-04-27T03:50:16.675Z,1023.056882
2023-04-27T03:55:15.909Z,1023.078399
2023-04-27T04:00:15.889Z,1023.160710
2023-04-27T04:05:16.303Z,1023.142766
2023-04-27T04:10:15.912Z,1023.203038
2023-04-27T04:15:16.914Z,1023.203467
2023-04-27T04:20:16.426Z,1023.263611
2023-04-27T04:25:15.842Z,1023.324545
2023-04-27T04:30:16.165Z,1023.305913
2023-04-27T04:35:16.087Z,1023.346713
2023-04-27T04:40:16.105Z,1023.287369
2023-04-27T04:45:15.819Z,1023.248337
2023-04-27T04:50:16.134Z,1023.269880
2023-04-27T04:55:17.478Z,1023.311137
2023-04-27T05:00:16.396Z,1023.411867
2023-04-27T05:05:17.230Z,1023.512933
2023-04-27T05:10:15.860Z,1023.493402
2023-04-27T05:15:16.126Z,1023.453512
2023-04-27T05:20:16.277Z,1023.433375
2023-04-27T05:25:17.843Z,1023.433030
2023-04-27T05:30:15.865Z,1023.433308
2023-04-27T05:35:17.475Z,1023.413278
2023-04-27T05:40:17.545Z,1023.434250
2023-04-27T05:45:16.628Z,1023.433944
2023-04-27T05:50:16.352Z,1023.412356
2023-04-27T05:55:16.087Z,1023.454625
2023-04-27T06:00:17.394Z,1023.454512
2023-04-27T06:05:16.428Z,1023.532832
2023-04-27T06:10:16.025Z,1023.632264
2023-04-27T06:15:16.026Z,1023.632180
2023-04-27T06:20:16.877Z,1023.653083
2023-04-27T06:25:16.190Z,1023.652293
2023-04-27T06:30:16.646Z,1023.630089
2023-04-27T06:35:16.625Z,1023.709619
2023-04-27T06:40:16.713Z,1023.752126
2023-04-27T06:45:15.846Z,1023.711656
2023-04-27T06:50:15.985Z,1023.692651
2023-04-27T06:55:18.121Z,1023.793550
2023-04-27T07:00:16.008Z,1023.712466
2023-04-27T07:05:16.019Z,1023.872558
2023-04-27T07:10:16.380Z,1023.893604
2023-04-27T07:15:16.722Z,1023.913270
2023-04-27T07:20:16.120Z,1023.913817
2023-04-27T07:25:16.461Z,1023.893576
2023-04-27T07:30:16.420Z,1023.935755
2023-04-27T07:35:16.383Z,1023.955307
2023-04-27T07:40:17.128Z,1023.996891
2023-04-27T07:45:16.103Z,1023.957533
2023-04-27T07:50:16.033Z,1023.957290
2023-04-27T07:55:15.917Z,1024.018349
2023-04-27T08:00:15.992Z,1024.059326
2023-04-27T08:05:16.811Z,1024.099116
2023-04-27T08:10:16.606Z,1024.160821
2023-04-27T08:15:16.094Z,1024.260908
2023-04-27T08:20:16.771Z,1024.241054
2023-04-27T08:25:15.996Z,1024.220325
2023-04-27T08:30:15.998Z,1024.198528
2023-04-27T08:35:15.993Z,1024.218814
2023-04-27T08:40:16.331Z,1024.240462
2023-04-27T08:45:17.963Z,1024.342126
2023-04-27T08:50:16.655Z,1024.402731
2023-04-27T08:55:16.974Z,1024.402932
2023-04-27T09:00:17.536Z,1024.381554
2023-04-27T09:05:16.181Z,1024.341712
2023-04-27T09:10:15.768Z,1024.402801
2023-04-27T09:15:16.261Z,1024.442262
2023-04-27T09:20:16.121Z,1024.523004
2023-04-27T09:25:16.990Z,1024.462128
2023-04-27T09:30:16.226Z,1024.463500
2023-04-27T09:35:16.187Z,1024.485121
2023-04-27T09:40:16.706Z,1024.583786
2023-04-27T09:45:16.933Z,1024.622166
2023-04-27T09:50:15.956Z,1024.582989
2023-04-27T09:55:16.580Z,1024.500782
2023-04-27T10:00:15.816Z,1024.579571
2023-04-27T10:05:16.301Z,1024.601185
2023-04-27T10:10:16.725Z,1024.580908
2023-04-27T10:15:15.971Z,1024.581753
2023-04-27T10:20:15.846Z,1024.663761
2023-04-27T10:25:16.669Z,1024.625795
2023-04-27T10:30:16.557Z,1024.745205
2023-04-27T10:35:16.421Z,1024.745678
2023-04-27T10:40:17.531Z,1024.804446
2023-04-27T10:45:16.724Z,1024.842131
2023-04-27T10:50:16.145Z,1024.824311
2023-04-27T10:55:17.709Z,1024.884699
2023-04-27T11:00:16.538Z,1024.907643
2023-04-27T11:05:16.119Z,1024.907418
2023-04-27T11:10:16.282Z,1024.924326
2023-04-27T11:15:15.735Z,1024.966567
2023-04-27T11:20:16.674Z,1024.946166
2023-04-27T11:25:15.882Z,1025.084253
2023-04-27T11:30:16.316Z,1025.121634
2023-04-27T11:35:16.653Z,1025.142909
2023-04-27T11:40:17.416Z,1025.162726
2023-04-27T11:45:17.942Z,1025.204322
2023-04-27T11:50:15.923Z,1025.225287
2023-04-27T11:55:16.147Z,1025.245632
2023-04-27T12:00:15.948Z,1025.305257
2023-04-27T12:05:16.530Z,1025.364261
2023-04-27T12:10:16.391Z,1025.422761
2023-04-27T12:15:16.369Z,1025.383817
2023-04-27T12:20:16.384Z,1025.404123
2023-04-27T12:25:17.664Z,1025.345090
2023-04-27T12:30:16.058Z,1025.325736
2023-04-27T12:35:16.934Z,1025.385509
2023-04-27T12:40:15.910Z,1025.464745
2023-04-27T12:45:15.803Z,1025.524321
2023-04-27T12:50:16.019Z,1025.546242
2023-04-27T12:55:25.115Z,1025.570649
2023-04-27T13:00:15.892Z,1025.570210
2023-04-27T13:05:16.215Z,1025.688978
2023-04-27T13:10:16.376Z,1025.669587
2023-04-27T13:15:16.601Z,1025.750521
2023-04-27T13:20:15.945Z,1025.767036
2023-04-27T13:25:16.314Z,1025.767182
2023-04-27T13:30:16.257Z,1025.868455
2023-04-27T13:35:16.295Z,1025.928558
2023-04-27T13:40:15.989Z,1025.989429
2023-04-27T13:45:15.802Z,1026.091834
2023-04-27T13:50:15.919Z,1026.094338
2023-04-27T13:55:16.355Z,1026.114544
2023-04-27T14:00:16.668Z,1026.194388
2023-04-27T14:05:16.536Z,1026.254234
2023-04-27T14:10:15.872Z,1026.315584
2023-04-27T14:15:16.413Z,1026.332311
2023-04-27T14:20:16.664Z,1026.291722
2023-04-27T14:25:16.833Z,1026.312392
2023-04-27T14:30:15.994Z,1026.331995
2023-04-27T14:35:16.031Z,1026.372197
2023-04-27T14:40:16.099Z,1026.411216
2023-04-27T14:45:16.561Z,1026.430431
2023-04-27T14:50:15.916Z,1026.367650
2023-04-27T14:55:16.884Z,1026.465870
2023-04-27T15:00:16.670Z,1026.484109
2023-04-27T15:05:16.783Z,1026.439919
2023-04-27T15:10:16.383Z,1026.476302
2023-04-27T15:15:16.867Z,1026.558670
2023-04-27T15:20:17.248Z,1026.597595
2023-04-27T15:25:16.070Z,1026.558136
2023-04-27T15:30:15.742Z,1026.537732
2023-04-27T15:35:16.193Z,1026.451914
2023-04-27T15:40:15.902Z,1026.347326
2023-04-27T15:45:16.384Z,1026.308974
2023-04-27T15:50:17.495Z,1026.317999
2023-04-27T15:55:16.101Z,1026.250334
2023-04-27T16:00:16.259Z,1026.257671
2023-04-27T16:05:15.899Z,1026.277990
2023-04-27T16:10:16.269Z,1026.196132
2023-04-27T16:15:16.530Z,1026.196666
2023-04-27T16:20:16.611Z,1026.176072
2023-04-27T16:25:16.502Z,1026.157936
2023-04-27T16:30:16.488Z,1026.139567
2023-04-27T16:35:15.901Z,1026.176210
2023-04-27T16:40:15.915Z,1026.099204
2023-04-27T16:45:16.194Z,1026.054932
2023-04-27T16:50:16.112Z,1025.997709
2023-04-27T16:55:16.149Z,1025.975569
2023-04-27T17:00:16.291Z,1025.957312
2023-04-27T17:05:15.980Z,1025.877529
2023-04-27T17:10:15.788Z,1025.916550
2023-04-27T17:15:16.241Z,1025.937407
2023-04-27T17:20:16.192Z,1025.956166
2023-04-27T17:25:16.088Z,1025.937190
2023-04-27T17:30:16.005Z,1025.892754
2023-04-27T17:35:16.016Z,1025.917147
2023-04-27T17:40:16.069Z,1025.896388
2023-04-27T17:45:15.720Z,1025.938011
2023-04-27T17:50:16.409Z,1025.897333
2023-04-27T17:55:15.892Z,1025.915870
2023-04-27T18:00:15.863Z,1025.854481
2023-04-27T18:05:15.899Z,1025.851629
2023-04-27T18:10:16.043Z,1025.828858
2023-04-27T18:15:15.890Z,1025.885777
2023-04-27T18:20:15.896Z,1025.846615
2023-04-27T18:25:17.201Z,1025.868794
2023-04-27T18:30:16.079Z,1025.886339
2023-04-27T18:35:16.563Z,1025.864847
2023-04-27T18:40:15.813Z,1025.907915
2023-04-27T18:45:16.878Z,1025.864054
2023-04-27T18:50:16.240Z,1025.824993
2023-04-27T18:55:16.126Z,1025.785932
2023-04-27T19:00:15.895Z,1025.725155
2023-04-27T19:05:16.113Z,1025.745581
2023-04-27T19:10:15.883Z,1025.743727
2023-04-27T19:15:16.444Z,1025.662128
2023-04-27T19:20:16.267Z,1025.641816
2023-04-27T19:25:16.055Z,1025.642863
2023-04-27T19:30:15.997Z,1025.540968
2023-04-27T19:35:15.973Z,1025.544542
2023-04-27T19:40:15.905Z,1025.443400
2023-04-27T19:45:16.187Z,1025.378610
2023-04-27T19:50:15.802Z,1025.399693
2023-04-27T19:55:15.980Z,1025.376202
2023-04-27T20:00:16.033Z,1025.379331
2023-04-27T20:05:16.341Z,1025.358492
2023-04-27T20:10:15.969Z,1025.318336
2023-04-27T20:15:16.605Z,1025.255665
2023-04-27T20:20:15.688Z,1025.276737
2023-04-27T20:25:16.864Z,1025.274778
2023-04-27T20:30:16.097Z,1025.176124
2023-04-27T20:35:16.134Z,1025.237066
2023-04-27T20:40:16.472Z,1025.155983
2023-04-27T20:45:16.198Z,1025.135591
2023-04-27T20:50:16.373Z,1025.011400
2023-04-27T20:55:15.917Z,1024.913027
2023-04-27T21:00:16.055Z,1024.832106
2023-04-27T21:05:16.036Z,1024.772443
2023-04-27T21:10:15.857Z,1024.750479
2023-04-27T21:15:16.339Z,1024.671584
2023-04-27T21:20:15.864Z,1024.569967
2023-04-27T21:25:16.177Z,1024.550170
2023-04-27T21:30:15.920Z,1024.569521
2023-04-27T21:35:15.760Z,1024.564888
2023-04-27T21:40:15.831Z,1024.484577
2023-04-27T21:45:15.902Z,1024.446136
2023-04-27T21:50:16.140Z,1024.382844
2023-04-27T21:55:15.773Z,1024.362872
2023-04-27T22:00:15.923Z,1024.285391
2023-04-27T22:05:16.654Z,1024.248138
2023-04-27T22:10:15.882Z,1024.205432
2023-04-27T22:15:16.447Z,1024.104157
2023-04-27T22:20:15.848Z,1024.104181
2023-04-27T22:25:17.242Z,1024.043186
2023-04-27T22:30:16.343Z,1023.984399
2023-04-27T22:35:25.541Z,1023.983536
2023-04-27T22:40:16.683Z,1023.904832
2023-04-27T22:45:15.981Z,1023.903741
2023-04-27T22:50:17.127Z,1023.842315
2023-04-27T22:55:16.418Z,1023.783946
2023-04-27T23:00:16.698Z,1023.642120
2023-04-27T23:05:16.267Z,1023.683253
2023-04-27T23:10:16.731Z,1023.560719
2023-04-27T23:15:17.320Z,1023.500151
2023-04-27T23:20:27.528Z,1023.418946
2023-04-27T23:25:16.051Z,1023.339306
2023-04-27T23:30:16.227Z,1023.298515
2023-04-27T23:35:16.150Z,1023.200187
2023-04-27T23:40:15.925Z,1023.179129
2023-04-27T23:45:16.500Z,1023.220695
2023-04-27T23:50:16.445Z,1023.177707
2023-04-27T23:55:16.198Z,1023.200048
